Time;durP1;ratioP1;P1;durP2;ratioP2;P2;SDS_P1;SDS_P2;PMS_P1;PMS_P2;Temp;Humidity;BMP_temperature;BMP_pressure;BME280_temperature;BME280_humidity;BME280_pressure;Samples;Min_cycle;Max_cycle;Signal;HPM_P1;HPM_P2
2023/09/14 00:01:00;;;;;;;7.30;4.63;;;18.20;99.90;;;;;;4915275;29;20024;-77
2023/09/14 00:03:28;;;;;;;7.68;4.60;;;18.20;99.90;;;;;;4931821;29;20047;-80
2023/09/14 00:05:54;;;;;;;7.60;4.80;;;18.20;99.90;;;;;;4947179;29;20046;-79
2023/09/14 00:08:31;;;;;;;6.28;4.32;;;18.10;99.90;;;;;;4947598;29;20111;-80
2023/09/14 00:11:02;;;;;;;7.93;4.93;;;18.10;99.90;;;;;;4914390;29;20035;-81
2023/09/14 00:13:28;;;;;;;8.20;5.10;;;18.10;99.90;;;;;;4931230;29;20047;-78
2023/09/14 00:15:54;;;;;;;7.53;4.65;;;18.00;99.90;;;;;;4914568;29;20019;-79
2023/09/14 00:18:20;;;;;;;6.72;4.82;;;18.00;99.90;;;;;;4930868;29;20031;-79
2023/09/14 00:20:46;;;;;;;8.27;4.82;;;18.00;99.90;;;;;;4915097;29;20049;-79
2023/09/14 00:23:12;;;;;;;6.63;4.85;;;17.90;99.90;;;;;;4915062;29;20217;-79
2023/09/14 00:25:38;;;;;;;7.43;4.90;;;17.90;99.90;;;;;;4914713;29;20047;-78
2023/09/14 00:28:04;;;;;;;6.32;4.80;;;17.90;99.90;;;;;;4915342;29;20027;-79
2023/09/14 00:30:30;;;;;;;8.38;5.10;;;17.80;99.90;;;;;;4944738;29;20052;-77
2023/09/14 05:55:23;;;;;;;14.45;8.32;;;16.60;99.90;;;;;;4867380;29;20049;-79
2023/09/14 05:58:14;;;;;;;12.90;7.90;;;16.70;99.90;;;;;;4854480;29;20286;-79
2023/09/14 06:00:40;;;;;;;8.90;6.72;;;17.00;99.90;;;;;;4872866;29;20083;-78
2023/09/14 06:03:05;;;;;;;11.90;7.10;;;17.10;99.90;;;;;;4841772;29;20053;-78
2023/09/14 06:06:05;;;;;;;15.98;7.68;;;17.20;99.90;;;;;;4856296;29;20129;-80
2023/09/14 06:08:25;;;;;;;12.45;7.13;;;17.30;99.90;;;;;;4849622;29;20033;-77
2023/09/14 06:10:50;;;;;;;12.98;7.38;;;17.50;99.90;;;;;;4871567;29;20100;-79
2023/09/14 06:13:20;;;;;;;10.80;6.72;;;17.50;99.90;;;;;;4870315;29;20036;-79
2023/09/14 06:15:46;;;;;;;8.38;6.00;;;17.70;99.90;;;;;;4839123;29;20032;-78
2023/09/14 06:18:12;;;;;;;7.13;5.50;;;17.70;99.90;;;;;;4853897;29;20061;-78
2023/09/14 06:20:38;;;;;;;8.73;5.35;;;17.70;99.90;;;;;;4854329;29;20262;-78
2023/09/14 06:23:04;;;;;;;8.80;6.07;;;17.80;99.90;;;;;;4853796;29;20025;-78
2023/09/14 06:25:30;;;;;;;7.70;5.50;;;17.90;99.90;;;;;;4853795;29;20025;-78
2023/09/14 06:27:56;;;;;;;7.63;5.28;;;17.90;99.90;;;;;;4870203;29;20025;-78
2023/09/14 06:30:21;;;;;;;9.25;5.38;;;17.90;99.90;;;;;;4853316;29;20040;-79
2023/09/14 06:32:47;;;;;;;6.80;5.10;;;17.90;99.90;;;;;;4854156;29;20041;-79
2023/09/14 06:35:16;;;;;;;7.40;5.07;;;18.00;99.90;;;;;;4870051;29;20041;-80
2023/09/14 06:37:42;;;;;;;9.27;5.38;;;18.00;99.90;;;;;;4870194;29;20033;-79
2023/09/14 06:40:08;;;;;;;7.65;5.95;;;18.10;99.90;;;;;;4872315;29;20082;-80
2023/09/14 06:42:34;;;;;;;10.18;5.72;;;18.10;99.90;;;;;;4868740;29;20196;-79
2023/09/14 06:48:52;;;;;;;8.10;5.88;;;18.00;99.90;;;;;;4830276;29;20156;-80
2023/09/14 06:51:17;;;;;;;7.70;4.88;;;18.00;99.90;;;;;;4831425;29;20022;-77
2023/09/14 06:53:43;;;;;;;6.97;5.20;;;18.10;99.90;;;;;;4840586;29;20068;-79
2023/09/14 06:56:19;;;;;;;6.97;4.47;;;18.10;99.90;;;;;;4852328;29;20324;-79
2023/09/14 06:59:14;;;;;;;9.27;5.38;;;18.20;99.90;;;;;;4821589;29;20034;-80
2023/09/14 07:01:44;;;;;;;7.05;4.80;;;18.30;99.90;;;;;;4825265;29;20061;-79
2023/09/14 07:04:10;;;;;;;6.32;4.60;;;18.30;99.90;;;;;;4868853;29;20041;-79
2023/09/14 07:06:42;;;;;;;10.85;5.13;;;18.40;99.90;;;;;;4882111;29;20238;-79
2023/09/14 07:09:08;;;;;;;10.73;5.15;;;18.40;99.90;;;;;;4873707;29;20037;-78
2023/09/14 07:11:41;;;;;;;8.32;5.47;;;18.40;99.90;;;;;;4852994;29;20039;-81
2023/09/14 07:14:07;;;;;;;7.10;4.63;;;18.30;99.90;;;;;;4869957;29;20037;-78
2023/09/14 07:16:45;;;;;;;7.95;5.03;;;18.40;99.90;;;;;;4873522;29;20045;-78
2023/09/14 07:19:13;;;;;;;7.05;5.13;;;18.50;99.90;;;;;;4848632;29;20038;-78
2023/09/14 07:21:39;;;;;;;7.03;4.53;;;18.60;99.90;;;;;;4868635;29;20386;-78
2023/09/14 07:24:08;;;;;;;6.68;4.45;;;18.70;99.90;;;;;;4885385;29;20062;-79
2023/09/14 07:26:38;;;;;;;;;;;18.90;99.90;;;;;;4904181;29;20078;-79
2023/09/14 07:29:04;;;;;;;6.95;3.70;;;18.80;99.90;;;;;;4901730;29;19908;-79
2023/09/14 07:31:29;;;;;;;6.22;3.85;;;18.90;99.90;;;;;;4874784;29;20037;-79
2023/09/14 07:33:59;;;;;;;6.18;3.95;;;19.00;99.90;;;;;;4876476;29;20033;-80
2023/09/14 07:36:24;;;;;;;5.82;3.75;;;19.00;99.90;;;;;;4876647;29;20060;-79
2023/09/14 07:38:50;;;;;;;7.07;4.07;;;19.00;99.90;;;;;;4866704;29;20300;-79
2023/09/14 07:41:16;;;;;;;5.55;3.95;;;19.10;99.90;;;;;;4872390;29;20033;-79
2023/09/14 07:43:42;;;;;;;7.15;4.05;;;19.20;99.90;;;;;;4872494;29;20037;-79
2023/09/14 07:46:08;;;;;;;5.55;3.63;;;19.20;99.90;;;;;;4853952;29;20017;-79
2023/09/14 07:48:34;;;;;;;4.55;3.10;;;19.30;99.90;;;;;;4886379;29;20031;-78
2023/09/14 07:50:59;;;;;;;6.88;3.78;;;19.40;99.90;;;;;;4892721;29;20314;-78
2023/09/14 07:53:25;;;;;;;7.05;3.80;;;19.40;99.70;;;;;;4868605;29;20167;-78
2023/09/14 07:55:54;;;;;;;12.88;5.40;;;19.40;99.50;;;;;;4871658;29;20030;-79
2023/09/14 07:58:20;;;;;;;7.78;4.13;;;19.50;99.60;;;;;;4872830;29;20212;-79
2023/09/14 08:00:48;;;;;;;5.05;3.67;;;19.60;99.20;;;;;;4857548;29;20086;-76
2023/09/14 08:03:14;;;;;;;6.93;3.75;;;19.70;98.80;;;;;;4859457;29;20054;-81
2023/09/14 08:05:44;;;;;;;14.93;5.28;;;19.70;98.80;;;;;;4874102;29;20040;-78
2023/09/14 08:08:10;;;;;;;7.70;4.85;;;19.80;98.90;;;;;;4885658;29;20025;-78
2023/09/14 08:10:36;;;;;;;6.18;4.28;;;19.70;98.10;;;;;;4893562;29;20088;-77
2023/09/14 08:13:02;;;;;;;6.95;4.53;;;19.70;98.20;;;;;;4910791;29;20104;-78
2023/09/14 08:15:29;;;;;;;7.93;4.95;;;19.80;98.10;;;;;;4900192;29;20036;-77
2023/09/14 08:17:56;;;;;;;7.13;5.22;;;19.80;97.60;;;;;;4875243;29;20044;-77
2023/09/14 08:20:21;;;;;;;8.07;4.30;;;19.80;97.60;;;;;;4890642;29;20056;-78
2023/09/14 08:22:48;;;;;;;7.15;4.03;;;19.80;97.60;;;;;;4874756;29;20021;-77
2023/09/14 08:25:15;;;;;;;8.98;4.72;;;19.80;97.60;;;;;;4891599;29;20043;-76
2023/09/14 08:27:41;;;;;;;8.68;5.32;;;19.90;97.20;;;;;;4874516;29;20033;-77
2023/09/14 08:30:11;;;;;;;8.07;4.88;;;19.90;96.90;;;;;;4891095;29;20121;-78
2023/09/14 08:32:37;;;;;;;6.38;4.18;;;19.90;96.90;;;;;;4857578;29;20109;-78
2023/09/14 08:35:23;;;;;;;6.97;4.43;;;20.00;96.90;;;;;;4889715;29;20060;-78
2023/09/14 08:37:52;;;;;;;6.97;5.07;;;20.20;96.60;;;;;;4890423;29;20048;-78
2023/09/14 08:40:18;;;;;;;;;;;20.10;95.80;;;;;;4890646;29;20044;-77
2023/09/14 08:42:53;;;;;;;5.68;4.05;;;20.40;96.00;;;;;;4873454;29;19904;-77
2023/09/14 08:45:48;;;;;;;7.57;5.18;;;20.60;95.40;;;;;;4874039;29;20033;-80
2023/09/14 08:48:17;;;;;;;7.68;5.40;;;20.50;95.10;;;;;;4877982;29;20248;-78
2023/09/14 08:50:52;;;;;;;7.80;4.70;;;20.30;95.10;;;;;;4873139;29;20029;-80
2023/09/14 08:53:38;;;;;;;6.20;3.80;;;20.40;95.60;;;;;;4886545;29;20054;-79
2023/09/14 08:56:16;;;;;;;7.60;4.72;;;20.60;95.20;;;;;;4856211;29;20158;-79
2023/09/14 08:58:44;;;;;;;10.55;4.50;;;20.80;95.00;;;;;;4837072;29;20068;-78
2023/09/14 09:01:19;;;;;;;5.65;3.72;;;21.00;94.60;;;;;;4867964;29;20061;-77
2023/09/14 09:03:47;;;;;;;6.10;3.97;;;21.10;94.00;;;;;;4873741;29;20388;-80
2023/09/14 09:06:37;;;;;;;7.88;4.32;;;21.20;93.90;;;;;;4854314;29;20030;-78
2023/09/14 09:09:07;;;;;;;8.93;4.18;;;21.10;93.90;;;;;;4854582;29;20041;-79
2023/09/14 09:11:53;;;;;;;6.15;4.38;;;21.20;94.00;;;;;;4870681;29;20034;-77
2023/09/14 09:14:40;;;;;;;6.82;4.15;;;21.10;93.60;;;;;;4874263;29;20064;-81
2023/09/14 09:17:46;;;;;;;8.48;4.72;;;21.10;94.00;;;;;;4907575;29;20044;-80
2023/09/14 09:20:46;;;;;;;13.97;5.70;;;21.30;93.50;;;;;;4908036;29;20071;-79
2023/09/14 09:23:22;;;;;;;9.52;4.82;;;21.50;93.10;;;;;;4908327;29;20040;-78
2023/09/14 09:25:53;;;;;;;7.70;4.72;;;21.40;92.80;;;;;;4907882;29;20195;-79
2023/09/14 09:28:29;;;;;;;5.72;3.88;;;21.10;93.10;;;;;;4891361;29;20043;-80
2023/09/14 09:34:33;;;;;;;7.13;3.72;;;21.30;93.00;;;;;;4816121;29;20057;-80
2023/09/14 09:36:59;;;;;;;5.90;4.47;;;21.50;92.90;;;;;;4832526;29;20074;-80
2023/09/14 09:39:28;;;;;;;7.82;4.80;;;21.70;92.10;;;;;;4811207;29;20068;-78
2023/09/14 09:41:54;;;;;;;8.95;4.38;;;21.60;91.90;;;;;;4819742;29;20083;-79
2023/09/14 09:44:23;;;;;;;10.13;4.82;;;21.50;92.10;;;;;;4798445;29;20046;-78
2023/09/14 09:46:48;;;;;;;5.82;3.60;;;21.50;92.40;;;;;;4798611;29;20069;-79
2023/09/14 09:49:19;;;;;;;7.07;4.25;;;21.80;92.10;;;;;;4813358;29;20038;-77
2023/09/14 09:51:49;;;;;;;7.28;3.83;;;21.90;91.60;;;;;;4779854;30;20042;-78
2023/09/14 09:54:18;;;;;;;9.65;3.95;;;22.00;91.30;;;;;;4804550;29;20054;-77
2023/09/14 09:56:44;;;;;;;7.57;3.95;;;22.20;91.30;;;;;;4831608;29;20073;-76
2023/09/14 09:59:10;;;;;;;8.20;3.80;;;22.30;91.00;;;;;;4816329;29;20112;-79
2023/09/14 10:01:40;;;;;;;15.27;4.57;;;22.50;90.80;;;;;;4800920;29;20030;-77
2023/09/14 10:04:15;;;;;;;10.90;4.22;;;22.50;90.40;;;;;;4780258;30;20245;-78
2023/09/14 10:06:48;;;;;;;5.40;3.95;;;22.50;90.50;;;;;;4790828;29;20516;-78
2023/09/14 10:09:14;;;;;;;5.82;3.50;;;22.50;90.10;;;;;;4831851;29;20046;-79
2023/09/14 10:11:40;;;;;;;6.93;3.45;;;22.50;90.30;;;;;;4854434;29;20226;-78
2023/09/14 10:14:08;;;;;;;9.85;3.80;;;22.50;90.20;;;;;;4853433;29;20064;-78
2023/09/14 10:16:40;;;;;;;7.30;3.53;;;22.50;90.20;;;;;;4869823;29;20042;-79
2023/09/14 10:19:07;;;;;;;6.30;3.67;;;22.40;90.30;;;;;;4870095;29;20056;-79
2023/09/14 10:22:01;;;;;;;9.05;2.95;;;22.40;90.40;;;;;;4875770;29;20036;-80
2023/09/14 10:24:27;;;;;;;6.22;3.55;;;22.60;90.30;;;;;;4887998;29;20028;-80
2023/09/14 10:26:55;;;;;;;6.65;3.50;;;22.80;89.50;;;;;;4871805;29;20322;-79
2023/09/14 10:29:23;;;;;;;8.90;3.60;;;22.80;89.00;;;;;;4888288;29;20021;-81
2023/09/14 10:31:52;;;;;;;5.63;3.83;;;22.90;88.80;;;;;;4888309;29;20315;-78
2023/09/14 10:34:17;;;;;;;5.68;3.33;;;23.10;88.10;;;;;;4871356;29;20039;-82
2023/09/14 10:36:45;;;;;;;6.63;3.45;;;23.20;87.70;;;;;;4855560;29;20294;-80
2023/09/14 10:39:12;;;;;;;6.23;4.00;;;23.30;87.50;;;;;;4870280;29;20052;-78
2023/09/14 10:41:38;;;;;;;5.85;3.05;;;23.30;87.10;;;;;;4887542;29;20454;-78
2023/09/14 10:44:04;;;;;;;5.75;3.35;;;23.30;86.70;;;;;;4888280;29;20032;-79
2023/09/14 10:46:35;;;;;;;4.50;3.22;;;23.50;86.10;;;;;;4887935;29;20024;-77
2023/09/14 10:49:04;;;;;;;5.43;3.10;;;23.80;85.30;;;;;;4886929;29;20033;-79
2023/09/14 10:51:47;;;;;;;5.03;3.22;;;23.90;84.90;;;;;;4856542;29;20029;-79
2023/09/14 10:54:13;;;;;;;6.97;2.85;;;24.10;83.00;;;;;;4872230;29;20061;-78
2023/09/14 10:56:39;;;;;;;6.28;3.00;;;24.20;82.90;;;;;;4874991;29;20035;-79
2023/09/14 10:59:08;;;;;;;4.15;2.58;;;24.60;82.60;;;;;;4875008;29;20221;-80
2023/09/14 11:01:47;;;;;;;5.18;2.65;;;24.90;81.60;;;;;;4859065;29;20211;-79
2023/09/14 11:04:15;;;;;;;5.53;3.03;;;25.50;79.40;;;;;;4871831;29;20025;-79
2023/09/14 11:06:49;;;;;;;5.27;2.97;;;25.60;78.30;;;;;;4871361;29;20074;-77
2023/09/14 11:09:16;;;;;;;4.47;2.90;;;26.40;76.80;;;;;;4872517;29;20596;-78
2023/09/14 11:11:52;;;;;;;5.30;2.70;;;26.90;75.00;;;;;;4871841;29;20052;-81
2023/09/14 11:14:21;;;;;;;5.45;2.97;;;27.40;73.40;;;;;;4871155;29;20033;-77
2023/09/14 11:17:05;;;;;;;4.20;2.55;;;27.90;72.20;;;;;;4857466;29;20033;-76
2023/09/14 11:19:37;;;;;;;4.75;2.80;;;28.40;71.50;;;;;;4889434;29;20040;-76
2023/09/14 11:22:11;;;;;;;5.10;2.55;;;29.00;69.80;;;;;;4868277;29;20060;-77
2023/09/14 11:24:40;;;;;;;4.93;2.80;;;29.90;67.30;;;;;;4873698;29;20132;-77
2023/09/14 11:27:06;;;;;;;5.05;2.10;;;30.70;65.40;;;;;;4873521;29;20044;-79
2023/09/14 11:29:32;;;;;;;3.95;2.50;;;31.00;65.20;;;;;;4854980;29;20084;-78
2023/09/14 11:32:07;;;;;;;4.63;2.40;;;31.70;62.60;;;;;;4892833;29;20336;-80
2023/09/14 11:34:36;;;;;;;5.20;2.38;;;32.10;61.90;;;;;;4899751;29;20032;-76
2023/09/14 11:37:05;;;;;;;10.05;2.40;;;32.20;61.20;;;;;;4898589;29;20028;-77
2023/09/14 11:39:31;;;;;;;4.43;2.25;;;31.50;62.20;;;;;;4896386;29;20295;-76
2023/09/14 11:42:00;;;;;;;6.00;2.30;;;31.30;61.70;;;;;;4899117;29;20023;-78
2023/09/14 11:44:31;;;;;;;3.80;1.73;;;31.80;61.50;;;;;;4885758;29;20032;-77
2023/09/14 11:47:01;;;;;;;3.33;1.98;;;32.30;60.40;;;;;;4905714;29;20033;-79
2023/09/14 11:49:31;;;;;;;3.55;2.20;;;32.10;59.40;;;;;;4897527;29;20021;-79
2023/09/14 11:51:58;;;;;;;3.45;2.15;;;32.50;59.50;;;;;;4900139;29;20107;-75
2023/09/14 11:54:31;;;;;;;4.97;2.10;;;33.10;58.90;;;;;;4873147;29;20389;-77
2023/09/14 11:57:04;;;;;;;4.18;1.63;;;33.80;58.70;;;;;;4878288;29;20087;-78
2023/09/14 11:59:33;;;;;;;3.83;1.63;;;34.40;57.50;;;;;;4876899;29;20057;-78
2023/09/14 12:02:01;;;;;;;3.20;2.13;;;34.40;56.90;;;;;;4883904;29;20037;-75
2023/09/14 12:04:30;;;;;;;2.60;1.50;;;34.50;56.30;;;;;;4902563;29;20037;-76
2023/09/14 12:06:58;;;;;;;8.55;2.08;;;34.20;57.40;;;;;;4899216;29;20057;-76
2023/09/14 12:09:41;;;;;;;3.85;1.90;;;34.70;56.40;;;;;;4874225;29;20029;-78
2023/09/14 12:12:23;;;;;;;5.70;2.10;;;35.10;55.40;;;;;;4889942;29;20351;-77
2023/09/14 12:14:52;;;;;;;4.18;1.92;;;35.20;54.80;;;;;;4889427;29;20300;-80
2023/09/14 12:17:48;;;;;;;11.25;2.53;;;35.90;54.40;;;;;;4889289;29;20100;-79
2023/09/14 12:20:16;;;;;;;6.75;1.90;;;35.70;53.90;;;;;;4888702;29;20094;-78
2023/09/14 12:22:43;;;;;;;4.40;1.83;;;36.10;54.00;;;;;;4888658;29;20037;-77
2023/09/14 12:25:10;;;;;;;3.40;1.95;;;35.90;54.00;;;;;;4888958;29;20081;-77
2023/09/14 12:27:36;;;;;;;2.72;1.83;;;36.00;54.00;;;;;;4856946;29;20036;-77
2023/09/14 12:30:07;;;;;;;4.05;1.92;;;36.10;53.50;;;;;;4889129;29;20025;-76
2023/09/14 12:32:35;;;;;;;3.28;2.05;;;36.20;53.10;;;;;;4889001;29;20061;-76
2023/09/14 12:35:04;;;;;;;4.60;1.80;;;35.40;53.90;;;;;;4888543;29;20029;-76
2023/09/14 12:37:36;;;;;;;3.85;1.90;;;35.80;53.10;;;;;;4890856;29;20085;-77
2023/09/14 12:40:06;;;;;;;5.93;1.77;;;35.30;53.30;;;;;;4893921;29;20100;-76
2023/09/14 12:42:34;;;;;;;5.30;1.60;;;35.40;53.10;;;;;;4872475;29;20051;-77
2023/09/14 12:45:00;;;;;;;3.15;1.42;;;36.10;53.10;;;;;;4889324;29;20253;-76
2023/09/14 12:47:26;;;;;;;3.38;1.98;;;36.90;51.80;;;;;;4889138;29;20100;-80
2023/09/14 12:49:59;;;;;;;6.20;1.55;;;37.20;50.60;;;;;;4871853;29;20053;-76
2023/09/14 12:52:28;;;;;;;3.10;1.60;;;37.40;52.00;;;;;;4872289;29;20192;-77
2023/09/14 12:54:54;;;;;;;4.07;1.77;;;38.10;50.40;;;;;;4843179;29;20372;-79
2023/09/14 12:57:20;;;;;;;4.50;2.00;;;38.50;50.00;;;;;;4850499;29;20064;-76
2023/09/14 13:00:11;;;;;;;2.78;1.63;;;38.00;49.70;;;;;;4850350;29;20052;-76
2023/09/14 13:02:42;;;;;;;3.38;2.00;;;37.80;50.50;;;;;;4857920;29;20026;-75
2023/09/14 13:05:09;;;;;;;3.08;1.92;;;37.90;50.10;;;;;;4869587;29;20335;-77
2023/09/14 13:07:44;;;;;;;3.23;1.87;;;38.30;49.80;;;;;;4868717;29;20104;-77
2023/09/14 13:10:18;;;;;;;4.70;1.70;;;38.30;49.40;;;;;;4870882;29;20054;-76
2023/09/14 13:12:53;;;;;;;3.95;1.50;;;39.30;48.90;;;;;;4854104;29;20311;-79
2023/09/14 13:15:29;;;;;;;3.45;1.92;;;39.00;48.70;;;;;;4860933;29;20048;-76
2023/09/14 13:18:03;;;;;;;3.67;1.70;;;39.00;48.50;;;;;;4851586;29;20042;-75
2023/09/14 13:20:37;;;;;;;3.20;1.30;;;38.80;48.00;;;;;;4852356;29;20046;-78
2023/09/14 13:23:05;;;;;;;3.65;1.70;;;39.60;48.00;;;;;;4838852;29;20029;-77
2023/09/14 13:25:32;;;;;;;3.05;1.70;;;39.40;47.50;;;;;;4872086;29;20060;-77
2023/09/14 13:28:04;;;;;;;4.28;1.70;;;39.50;48.60;;;;;;4872310;29;20045;-79
2023/09/14 13:30:32;;;;;;;2.60;1.17;;;40.00;47.40;;;;;;4856922;29;20148;-78
2023/09/14 13:32:58;;;;;;;3.30;1.45;;;40.30;47.70;;;;;;4888743;29;20056;-78
2023/09/14 13:35:25;;;;;;;5.50;1.40;;;40.70;46.50;;;;;;4888760;29;20044;-77
2023/09/14 13:37:56;;;;;;;;;;;40.80;47.50;;;;;;4888343;29;20284;-76
2023/09/14 13:40:24;;;;;;;3.17;1.40;;;41.50;45.50;;;;;;4871345;29;19915;-78
2023/09/14 13:42:57;;;;;;;5.63;1.30;;;41.50;46.00;;;;;;4836984;29;20040;-75
2023/09/14 13:45:37;;;;;;;3.15;1.40;;;41.60;46.30;;;;;;4852397;29;20037;-76
2023/09/14 13:48:03;;;;;;;3.13;1.42;;;41.10;45.20;;;;;;4831931;29;20043;-78
2023/09/14 13:50:29;;;;;;;7.82;1.70;;;41.50;45.40;;;;;;4849669;29;20264;-77
2023/09/14 13:52:55;;;;;;;5.88;1.88;;;41.50;46.30;;;;;;4850808;29;20037;-77
2023/09/14 13:55:20;;;;;;;5.72;1.70;;;41.10;45.00;;;;;;4886079;29;20053;-75
2023/09/14 13:57:47;;;;;;;2.88;1.40;;;41.20;45.50;;;;;;4887439;29;20037;-78
2023/09/14 14:00:15;;;;;;;4.35;1.73;;;41.60;45.40;;;;;;4887749;29;20215;-76
2023/09/14 14:02:49;;;;;;;3.47;1.33;;;41.30;45.50;;;;;;4887269;29;20303;-80
2023/09/14 14:05:15;;;;;;;3.78;1.13;;;40.90;46.30;;;;;;4887965;29;20037;-76
2023/09/14 14:07:50;;;;;;;2.92;1.42;;;41.10;45.40;;;;;;4871581;29;20074;-74
2023/09/14 14:10:16;;;;;;;3.53;1.60;;;41.20;45.40;;;;;;4887735;29;20036;-77
2023/09/14 14:12:43;;;;;;;2.40;1.30;;;40.80;46.70;;;;;;4887067;29;20088;-77
2023/09/14 14:15:09;;;;;;;2.97;1.40;;;41.60;45.20;;;;;;4887774;29;20049;-76
2023/09/14 14:17:35;;;;;;;2.13;1.20;;;42.50;44.90;;;;;;4887519;29;20074;-76
2023/09/14 14:20:00;;;;;;;2.63;1.23;;;41.90;45.00;;;;;;4886600;29;20215;-76
2023/09/14 14:22:26;;;;;;;2.90;1.40;;;41.90;44.60;;;;;;4871126;29;20021;-76
2023/09/14 14:24:52;;;;;;;2.55;1.27;;;42.00;44.10;;;;;;4886637;29;20235;-76
2023/09/14 14:27:19;;;;;;;3.85;1.40;;;41.90;43.60;;;;;;4855695;29;20073;-77
2023/09/14 14:29:45;;;;;;;2.60;1.20;;;42.20;44.10;;;;;;4873911;29;20100;-79
2023/09/14 14:32:11;;;;;;;3.97;1.50;;;42.70;43.80;;;;;;4874826;29;20219;-75
2023/09/14 14:34:37;;;;;;;3.63;1.55;;;42.60;43.70;;;;;;4890594;29;20256;-76
2023/09/14 14:37:03;;;;;;;2.95;1.65;;;42.90;43.90;;;;;;4891412;29;20039;-77
2023/09/14 14:39:30;;;;;;;2.70;1.00;;;42.70;43.60;;;;;;4891102;29;20210;-77
2023/09/14 14:41:55;;;;;;;3.92;1.30;;;41.80;43.90;;;;;;4890796;29;20076;-77
2023/09/14 14:44:21;;;;;;;4.40;1.75;;;41.70;44.00;;;;;;4891737;29;20259;-76
2023/09/14 14:46:47;;;;;;;3.47;1.60;;;41.80;44.30;;;;;;4890833;29;20132;-77
2023/09/14 14:49:13;;;;;;;2.30;1.35;;;41.90;43.90;;;;;;4874403;29;20108;-76
2023/09/14 14:51:39;;;;;;;3.67;1.70;;;41.90;43.90;;;;;;4890412;29;20101;-77
2023/09/14 14:54:06;;;;;;;3.13;1.17;;;41.40;43.30;;;;;;4881609;29;20056;-75
2023/09/14 14:56:32;;;;;;;2.20;1.23;;;39.60;44.70;;;;;;4872289;29;20046;-75
2023/09/14 14:58:59;;;;;;;3.00;1.50;;;37.50;47.30;;;;;;4872019;29;20082;-77
2023/09/14 15:01:25;;;;;;;2.28;1.48;;;37.10;48.00;;;;;;4872472;29;20045;-78
2023/09/14 15:03:51;;;;;;;3.53;1.70;;;36.50;48.30;;;;;;4888510;29;20124;-76
2023/09/14 15:06:17;;;;;;;3.28;1.55;;;35.90;48.90;;;;;;4873447;29;20088;-77
2023/09/14 15:08:44;;;;;;;2.70;1.30;;;36.10;49.30;;;;;;4889767;29;20232;-79
2023/09/14 15:11:10;;;;;;;2.90;1.85;;;35.80;49.70;;;;;;4873487;29;20164;-78
2023/09/14 15:13:37;;;;;;;2.33;1.33;;;35.70;49.10;;;;;;4891189;29;20033;-78
2023/09/14 15:16:03;;;;;;;3.65;1.75;;;35.20;50.40;;;;;;4890731;29;20051;-76
2023/09/14 15:18:31;;;;;;;2.80;1.75;;;35.00;49.80;;;;;;4891933;29;20260;-76
2023/09/14 15:21:00;;;;;;;4.63;2.03;;;34.40;50.60;;;;;;4891261;29;20099;-77
2023/09/14 15:23:26;;;;;;;3.25;1.65;;;33.50;51.40;;;;;;4891855;29;20037;-74
2023/09/14 15:25:54;;;;;;;2.90;1.83;;;32.60;52.50;;;;;;4891115;29;20334;-75
2023/09/14 15:28:24;;;;;;;2.42;1.40;;;32.00;53.00;;;;;;4875059;29;20048;-79
2023/09/14 15:30:52;;;;;;;2.90;1.65;;;31.60;54.80;;;;;;4891231;29;20029;-77
2023/09/14 15:33:17;;;;;;;3.40;1.55;;;31.20;54.70;;;;;;4891485;29;20033;-76
2023/09/14 15:35:43;;;;;;;3.80;1.52;;;31.20;54.40;;;;;;4889699;29;20037;-77
2023/09/14 15:38:09;;;;;;;2.10;1.30;;;31.00;54.60;;;;;;4891058;29;20357;-77
2023/09/14 15:40:36;;;;;;;4.35;1.20;;;32.20;53.70;;;;;;4884845;29;20040;-76
2023/09/14 15:43:03;;;;;;;7.25;1.60;;;33.20;52.60;;;;;;4874958;29;20045;-76
2023/09/14 15:45:29;;;;;;;7.00;1.70;;;33.90;50.60;;;;;;4874549;29;20029;-78
2023/09/14 15:47:56;;;;;;;6.78;1.67;;;34.60;50.20;;;;;;4863009;29;20029;-79
2023/09/14 15:50:22;;;;;;;3.88;1.60;;;35.10;49.50;;;;;;4872584;29;20066;-75
2023/09/14 15:52:47;;;;;;;10.10;2.03;;;36.40;49.90;;;;;;4871998;29;20049;-76
2023/09/14 15:55:13;;;;;;;5.25;1.40;;;37.80;47.60;;;;;;4890663;29;20057;-78
2023/09/14 15:57:39;;;;;;;2.80;1.33;;;38.90;46.20;;;;;;4890756;29;20043;-76
2023/09/14 16:00:08;;;;;;;4.28;1.33;;;38.80;45.60;;;;;;4891406;29;20037;-77
2023/09/14 16:02:35;;;;;;;3.58;1.33;;;37.80;47.80;;;;;;4891301;29;20040;-79
2023/09/14 16:05:02;;;;;;;2.47;1.30;;;37.60;46.70;;;;;;4890933;29;20037;-77
2023/09/14 16:07:29;;;;;;;3.83;1.30;;;38.00;46.50;;;;;;4890858;29;20085;-75
2023/09/14 16:09:56;;;;;;;4.43;1.35;;;39.00;45.80;;;;;;4890591;29;20041;-75
2023/09/14 16:12:22;;;;;;;2.17;1.00;;;39.30;45.20;;;;;;4874496;29;20239;-76
2023/09/14 16:14:47;;;;;;;3.78;1.20;;;38.90;45.00;;;;;;4890485;29;20037;-75
2023/09/14 16:17:13;;;;;;;2.67;1.02;;;38.70;45.50;;;;;;4890776;29;20082;-75
2023/09/14 16:19:40;;;;;;;2.78;1.48;;;38.50;45.20;;;;;;4873990;29;20063;-78
2023/09/14 16:22:06;;;;;;;1.80;1.08;;;38.10;45.40;;;;;;4877476;29;20037;-74
2023/09/14 16:24:33;;;;;;;2.97;1.40;;;37.70;46.40;;;;;;4898676;29;20068;-76
2023/09/14 16:26:59;;;;;;;2.35;1.30;;;37.20;46.40;;;;;;4899634;29;20040;-76
2023/09/14 16:29:25;;;;;;;2.70;1.58;;;37.10;46.50;;;;;;4893511;29;20029;-77
2023/09/14 16:31:50;;;;;;;3.22;1.23;;;36.70;47.10;;;;;;4883880;29;20097;-78
2023/09/14 16:34:16;;;;;;;6.35;1.35;;;36.00;47.70;;;;;;4872477;29;20197;-76
2023/09/14 16:36:42;;;;;;;3.58;1.42;;;35.50;48.90;;;;;;4882790;29;20029;-74
2023/09/14 16:39:08;;;;;;;3.55;1.60;;;35.50;48.80;;;;;;4884645;29;20320;-77
2023/09/14 16:41:38;;;;;;;2.65;1.40;;;35.00;49.10;;;;;;4889406;29;20036;-76
2023/09/14 16:44:08;;;;;;;5.97;1.55;;;34.10;51.20;;;;;;4871484;29;20061;-78
2023/09/14 16:46:34;;;;;;;2.90;1.65;;;32.70;51.90;;;;;;4872022;29;20044;-78
2023/09/14 16:49:21;;;;;;;2.75;1.30;;;31.40;54.00;;;;;;4889590;29;20367;-78
2023/09/14 16:51:50;;;;;;;4.10;1.87;;;30.40;55.50;;;;;;4890091;29;20033;-75
2023/09/14 16:54:20;;;;;;;3.45;1.73;;;29.50;56.60;;;;;;4878873;29;20052;-76
2023/09/14 16:56:46;;;;;;;3.50;1.50;;;28.60;57.90;;;;;;4871696;29;20033;-77
2023/09/14 16:59:12;;;;;;;4.45;2.20;;;28.00;59.00;;;;;;4871185;29;20037;-77
2023/09/14 17:01:38;;;;;;;4.07;1.75;;;27.30;60.50;;;;;;4877200;29;20039;-77
2023/09/14 17:04:05;;;;;;;2.85;1.52;;;26.80;61.60;;;;;;4871192;29;20017;-77
2023/09/14 17:06:31;;;;;;;3.47;1.88;;;26.60;63.10;;;;;;4870921;29;20231;-77
2023/09/14 17:08:57;;;;;;;3.58;1.80;;;26.40;62.50;;;;;;4854038;29;20075;-77
2023/09/14 17:11:23;;;;;;;3.80;2.00;;;26.10;63.50;;;;;;4854832;29;20029;-77
2023/09/14 17:13:48;;;;;;;4.70;1.92;;;26.00;64.60;;;;;;4854177;29;20029;-76
2023/09/14 17:16:15;;;;;;;3.60;1.83;;;25.70;65.40;;;;;;4854517;29;20033;-76
2023/09/14 17:18:46;;;;;;;3.92;2.05;;;25.50;64.90;;;;;;4870702;29;20029;-77
2023/09/14 17:21:15;;;;;;;3.75;2.00;;;25.20;64.40;;;;;;4854588;29;20037;-77
2023/09/14 17:23:41;;;;;;;3.47;1.52;;;24.90;64.80;;;;;;4853937;29;20036;-76
2023/09/14 17:26:07;;;;;;;4.88;1.85;;;24.70;65.10;;;;;;4870781;29;20211;-77
2023/09/14 17:28:33;;;;;;;3.15;2.00;;;24.60;66.10;;;;;;4882822;29;20045;-76
2023/09/14 17:30:59;;;;;;;4.05;1.92;;;24.50;65.90;;;;;;4889146;29;20111;-77
2023/09/14 17:33:25;;;;;;;3.72;2.25;;;24.40;66.60;;;;;;4889896;29;20021;-79
2023/09/14 17:35:50;;;;;;;4.95;2.67;;;24.20;67.20;;;;;;4888991;29;20056;-77
2023/09/14 17:38:17;;;;;;;4.85;2.67;;;24.10;67.10;;;;;;4896004;29;20341;-78
2023/09/14 17:40:43;;;;;;;4.18;2.15;;;23.90;67.60;;;;;;4902845;29;20317;-77
2023/09/14 17:43:09;;;;;;;5.47;2.50;;;23.80;68.90;;;;;;4891345;29;20033;-76
2023/09/14 17:45:34;;;;;;;5.45;2.33;;;23.70;68.80;;;;;;4907621;29;20046;-76
2023/09/14 17:48:00;;;;;;;4.03;2.33;;;23.50;69.40;;;;;;4907638;29;20252;-77
2023/09/14 17:50:26;;;;;;;4.28;2.17;;;23.40;70.00;;;;;;4907374;29;20028;-77
2023/09/14 17:52:52;;;;;;;4.32;2.38;;;23.30;70.30;;;;;;4907480;29;20037;-77
2023/09/14 17:55:19;;;;;;;4.72;2.33;;;23.20;70.50;;;;;;4891871;29;20059;-77
2023/09/14 17:57:45;;;;;;;7.00;2.20;;;23.00;71.10;;;;;;4888455;29;20375;-77
2023/09/14 18:00:13;;;;;;;5.00;2.50;;;22.90;71.40;;;;;;4888824;29;20049;-77
2023/09/14 18:02:46;;;;;;;3.88;2.17;;;22.90;72.00;;;;;;4888485;29;20028;-77
2023/09/14 18:05:13;;;;;;;4.88;2.35;;;22.80;71.70;;;;;;4889132;29;20387;-76
2023/09/14 18:07:39;;;;;;;5.97;2.33;;;22.80;72.10;;;;;;4888585;29;20085;-77
2023/09/14 18:10:07;;;;;;;5.43;2.30;;;22.80;72.30;;;;;;4889066;29;20021;-77
2023/09/14 18:12:36;;;;;;;4.40;2.70;;;22.70;72.10;;;;;;4888303;29;20060;-78
2023/09/14 18:15:02;;;;;;;6.03;2.30;;;22.60;72.20;;;;;;4888175;29;20041;-77
2023/09/14 18:17:29;;;;;;;6.60;2.42;;;22.50;72.70;;;;;;4888725;29;20045;-76
2023/09/14 18:19:55;;;;;;;3.47;2.30;;;22.40;73.70;;;;;;4888359;29;20040;-76
2023/09/14 18:22:20;;;;;;;5.30;2.25;;;22.30;73.70;;;;;;4871967;29;20116;-77
2023/09/14 18:24:52;;;;;;;7.22;2.80;;;22.10;74.30;;;;;;4855838;29;20025;-76
2023/09/14 18:27:21;;;;;;;4.57;2.70;;;22.00;75.00;;;;;;4888464;29;20029;-76